• Join FlightAware (Why Join?)
  • Login
  • US Flag GB Flag 
07:19 EDT


 

Airport Tracker/Info


-or-


 

Live Flight TrackerFlight Track Log ✈ UPS2591 ✈ 13-Jun-2014 ✈ KBIL - KSDF

Flight Track Log - Related Links

Times and Time Zones

All times are in EDT time to prevent confusion due to time zone crossing. See the UPS2591 flight status page for this flight to view local times or setup timezone preferences in your user account.

Time Position Orientation Groundspeed Altitude Reporting Facility
EDT Latitude Longitude Course Direction KTS MPH feet Rate Location/Type
09:44 45.8101 -108.5452 292° West 167 192 4,100  Level FlightAware ADS-B (KBIL)
09:44 45.8150 -108.5571 319° Northwest 155 178 5,000 3,900 Climbing FlightAware ADS-B (KBIL)
09:44 45.8193 -108.5609 337° Northwest 160 184 5,400 3,420 Climbing FlightAware ADS-B (KBIL)
09:44 45.8242 -108.5625 354° North 164 189 5,800 2,760 Climbing FlightAware ADS-B (KBIL)
09:44 45.8303 -108.5620 North 173 199 6,100 2,400 Climbing FlightAware ADS-B (KBIL)
09:44 45.8358 -108.5597 20° North 183 211 6,400 1,980 Climbing FlightAware ADS-B (KBIL)
09:45 45.8421 -108.5547 36° Northeast 195 224 6,600 1,980 Climbing FlightAware ADS-B (KBIL)
09:45 45.8485 -108.5449 54° Northeast 206 237 7,000 1,620 Climbing FlightAware ADS-B (KBIL)
09:45 45.8521 -108.5354 66° East 218 251 7,100 1,020 Climbing FlightAware ADS-B (KBIL)
09:45 45.8542 -108.5228 82° East 230 265 7,300 1,380 Climbing FlightAware ADS-B (KBIL)
09:45 45.8543 -108.5092 93° East 239 275 7,500 1,800 Climbing FlightAware ADS-B (KBIL)
09:45 45.8525 -108.4862 97° East 257 296 8,000 1,800 Climbing FlightAware ADS-B (KBIL)
09:46 45.8484 -108.4517 100° East 294 338 8,500 2,040 Climbing FlightAware ADS-B (KBIL)
09:46 45.8439 -108.4199 101° East 313 360 9,200 3,060 Climbing FlightAware ADS-B (KBIL)
09:46 45.8343 -108.3517 101° East 340 391 11,000 2,520 Climbing FlightAware ADS-B (KBIL)
09:47 45.8244 -108.2754 100° East 388 447 11,900 1,860 Climbing FlightAware ADS-B (KBIL)
09:48 45.8141 -108.1936 100° East 419 482 13,000 3,000 Climbing FlightAware ADS-B (KBIL)
09:48 45.8041 -108.1171 100° East 419 482 14,900 4,020 Climbing FlightAware ADS-B (KBIL)
09:49 45.7924 -108.0224 100° East 419 482 17,200 3,300 Climbing FlightAware ADS-B (KBIL)
09:49 45.7840 -107.9554 100° East 432 497 18,200 3,300 Climbing FlightAware ADS-B (KBIL)
09:50 45.7702 -107.8566 101° East 428 493 20,500 3,180 Climbing FlightAware ADS-B (KBIL)
09:50 45.7589 -107.7782 101° East 439 505 21,600 2,340 Climbing FlightAware ADS-B (KBIL)
09:51 45.7465 -107.6860 101° East 452 520 22,900 1,620 Climbing FlightAware ADS-B (KBIL)
09:51 45.7340 -107.5971 101° East 481 554 23,300 900 Climbing FlightAware ADS-B (KBIL)
09:52 45.7209 -107.5042 101° East 504 580 23,800 1,620 Climbing FlightAware ADS-B (KBIL)
09:52 45.7074 -107.4069 101° East 510 587 24,900 2,160 Climbing FlightAware ADS-B (KBIL)
09:53 45.6941 -107.3124 101° East 516 594 25,900 2,160 Climbing FlightAware ADS-B (KBIL)
09:53 45.6804 -107.2155 101° East 519 597 27,000 2,220 Climbing FlightAware ADS-B (KBIL)
09:54 45.6652 -107.1089 101° East 520 598 28,200 2,160 Climbing FlightAware ADS-B (KBIL)
09:54 45.6516 -107.0132 101° East 520 598 29,200 2,220 Climbing FlightAware ADS-B (KBIL)
09:55 45.6358 -106.9043 101° East 517 595 30,500 2,280 Climbing FlightAware ADS-B (KBIL)
09:55 45.6211 -106.8027 101° East 514 592 31,600 2,100 Climbing FlightAware ADS-B (KBIL)
09:56 45.6065 -106.7028 101° East 512 589 32,600 1,740 Climbing FlightAware ADS-B (KBIL)
09:56 45.5931 -106.6116 101° East 514 592 33,300 1,680 Climbing FlightAware ADS-B (KBIL)
09:57 45.5773 -106.5053 101° East 512 589 34,300 1,560 Climbing FlightAware ADS-B (KBIL)
09:57 45.5621 -106.4035 102° East 513 590 35,000 660 Climbing FlightAware ADS-B (KBIL)
09:58 45.5481 -106.3098 101° East 521 600 35,000  Level FlightAware ADS-B (KBIL)
09:58 45.5336 -106.2135 102° East 520 598 35,000  Level FlightAware ADS-B (KBIL)
09:59 45.5169 -106.1030 102° East 516 594 35,000  Level FlightAware ADS-B (KBIL)
09:59 45.5030 -106.0097 100° East 515 593 35,000  Level FlightAware ADS-B (KBIL)
10:00 45.4928 -105.9096 96° East 516 594 35,000  Level FlightAware ADS-B (KBIL)
10:00 45.4846 -105.8028 96° East 516 594 35,000  Level FlightAware ADS-B (KBIL)
10:00 45.4778 -105.7142 96° East 516 594 35,000  Level FlightAware ADS-B (KBIL)
10:01 45.4690 -105.6054 96° East 515 593 35,000  Level FlightAware ADS-B (KBIL)
10:02 45.4609 -105.5085 96° East 513 590 35,000  Level FlightAware ADS-B (KBIL)
10:02 45.4524 -105.4062 96° East 514 592 35,000  Level FlightAware ADS-B (KBIL)
10:03 45.4435 -105.3023 96° East 518 596 35,000  Level FlightAware ADS-B (KBIL)
10:03 45.4352 -105.2055 97° East 515 593 35,000  Level FlightAware ADS-B (KBIL)
10:04 45.4258 -105.0958 96° East 513 590 35,000  Level FlightAware ADS-B (KBIL)
10:04 45.4226 -105.0590 96° East 514 592 35,000 420 Level FlightAware ADS-B (KBIL)
10:05 45.4003 -104.8025 96° East 515 593 35,700 540 Climbing Salt Lake Center
10:06 45.3825 -104.5994 97° East 516 594 36,300 540 Climbing Salt Lake Center
10:07 45.3653 -104.4225 98° East 522 601 36,900 300 Climbing Salt Lake Center
10:08 45.3414 -104.1767 98° East 523 602 37,000  Climbing Salt Lake Center
10:09 45.3228 -103.9747 97° East 523 602 37,000 -60 Level Salt Lake Center
10:10 45.3028 -103.7736 98° East 521 600 36,900  Descending Salt Lake Center
10:11 45.2825 -103.5706 98° East 520 598 37,000  Climbing Salt Lake Center
10:12 45.2611 -103.3658 98° East 522 601 36,900 -60 Descending Salt Lake Center
10:13 45.2403 -103.1622 98° East 523 602 36,900 60 Level Salt Lake Center
10:14 45.2261 -103.0317 99° East 522 601 37,000 60 Climbing Minneapolis Center
10:15 45.2044 -102.8294 99° East 522 601 37,000  Level Minneapolis Center
10:16 45.1825 -102.6261 99° East 523 602 37,000  Level Minneapolis Center
10:17 45.1597 -102.4211 99° East 526 605 37,000  Level Minneapolis Center
10:18 45.1367 -102.2167 99° East 527 606 37,000  Level Minneapolis Center
10:19 45.1131 -102.0086 99° East 527 606 37,000  Level Minneapolis Center
10:20 45.0844 -101.7692 100° East 526 605 37,000  Level Minneapolis Center
10:21 45.0425 -101.5739 107° East 524 603 37,000  Level Minneapolis Center
10:22 44.9919 -101.3850 111° Southeast 519 597 37,000  Level Minneapolis Center
10:23 44.9411 -101.1953 111° Southeast 519 597 37,000  Level Minneapolis Center
10:24 44.8903 -101.0053 111° Southeast 520 598 37,000  Level Minneapolis Center
10:25 44.8392 -100.8158 111° Southeast 520 598 37,000  Level Minneapolis Center
10:26 44.7769 -100.5886 111° Southeast 521 600 37,000  Level Minneapolis Center
10:27 44.7253 -100.3994 111° Southeast 523 602 37,000  Level Minneapolis Center
10:28 44.6731 -100.2117 111° Southeast 523 602 37,000  Level Minneapolis Center
10:29 44.6208 -100.0247 111° Southeast 522 601 37,000  Level Minneapolis Center
10:30 44.5569 -99.7981 112° Southeast 524 603 37,000  Level Minneapolis Center
10:31 44.5031 -99.6083 112° Southeast 527 606 37,000  Level Minneapolis Center
10:32 44.4486 -99.4183 112° Southeast 528 608 37,000  Level Minneapolis Center
10:33 44.3939 -99.2292 112° Southeast 528 608 37,000  Level Minneapolis Center
10:34 44.3389 -99.0392 112° Southeast 529 609 37,000  Level Minneapolis Center
10:35 44.2836 -98.8503 112° Southeast 529 609 37,000  Level Minneapolis Center
10:40 43.9677 -97.9118 116° Southeast 519 597 37,000  Level FlightAware ADS-B
10:41 43.9190 -97.7719 116° Southeast 516 594 37,000  Level FlightAware ADS-B
10:42 43.8828 -97.6681 116° Southeast 520 598 37,000  Level FlightAware ADS-B
10:43 43.8316 -97.5221 116° Southeast 522 601 37,000  Level FlightAware ADS-B
10:43 43.7991 -97.4298 116° Southeast 523 602 37,000  Level FlightAware ADS-B
10:44 43.7672 -97.3399 116° Southeast 525 604 37,000  Level FlightAware ADS-B
10:44 43.7224 -97.2134 116° Southeast 523 602 37,000  Level FlightAware ADS-B
10:45 43.6797 -97.0938 116° Southeast 523 602 37,000  Level FlightAware ADS-B
10:45 43.6454 -96.9980 116° Southeast 523 602 37,000  Level FlightAware ADS-B
10:46 43.6122 -96.9056 116° Southeast 523 602 37,000  Level FlightAware ADS-B
10:46 43.5800 -96.8162 116° Southeast 526 605 37,000  Level FlightAware ADS-B
10:47 43.5475 -96.7262 117° Southeast 526 605 37,000  Level FlightAware ADS-B
10:48 43.5037 -96.6053 116° Southeast 525 604 37,000  Level FlightAware ADS-B
10:48 43.4709 -96.5149 117° Southeast 523 602 37,000  Level FlightAware ADS-B
10:49 43.4374 -96.4236 117° Southeast 523 602 37,000  Level FlightAware ADS-B
10:49 43.4036 -96.3313 117° Southeast 521 600 37,000  Level FlightAware ADS-B
10:50 43.3710 -96.2427 117° Southeast 521 600 37,000  Level FlightAware ADS-B
10:50 43.3371 -96.1509 117° Southeast 522 601 37,000  Level FlightAware ADS-B
10:51 43.3026 -96.0577 117° Southeast 523 602 37,000  Level FlightAware ADS-B
10:51 43.2692 -95.9677 117° Southeast 523 602 37,000  Level FlightAware ADS-B
10:52 43.2353 -95.8768 117° Southeast 524 603 37,000  Level FlightAware ADS-B
10:52 43.2015 -95.7863 117° Southeast 523 602 37,000  Level FlightAware ADS-B
10:53 43.1683 -95.6976 117° Southeast 520 598 37,000  Level FlightAware ADS-B
10:53 43.1353 -95.6101 117° Southeast 519 597 37,000  Level FlightAware ADS-B
10:54 43.1005 -95.5179 117° Southeast 518 596 37,000  Level FlightAware ADS-B
10:54 43.0674 -95.4309 117° Southeast 518 596 37,000  Level FlightAware ADS-B
10:55 43.0523 -95.3910 117° Southeast 516 594 37,000  Level FlightAware ADS-B (KFOD)
10:55 43.0341 -95.3433 117° Southeast 516 594 37,000  Level FlightAware ADS-B
10:55 43.0009 -95.2559 117° Southeast 518 596 37,000  Level FlightAware ADS-B
10:55 42.9935 -95.2365 117° Southeast 519 597 37,000  Level FlightAware ADS-B (KFOD)
10:56 42.9673 -95.1680 118° Southeast 521 600 37,000  Level FlightAware ADS-B
10:56 42.9566 -95.1401 118° Southeast 522 601 37,000  Level FlightAware ADS-B (KFOD)
10:56 42.9332 -95.0788 117° Southeast 522 601 37,000  Level FlightAware ADS-B
10:56 42.9247 -95.0568 118° Southeast 522 601 37,000  Level FlightAware ADS-B (KFOD)
10:57 42.8995 -94.9912 118° Southeast 522 601 37,000  Level FlightAware ADS-B
10:57 42.8942 -94.9774 118° Southeast 521 600 37,000  Level FlightAware ADS-B (KFOD)
10:57 42.8643 -94.9000 118° Southeast 521 600 37,000  Level FlightAware ADS-B
10:57 42.8561 -94.8786 118° Southeast 522 601 37,000  Level FlightAware ADS-B (KFOD)
10:58 42.8306 -94.8127 118° Southeast 523 602 37,000  Level FlightAware ADS-B
10:58 42.8215 -94.7893 118° Southeast 522 601 37,000  Level FlightAware ADS-B (KFOD)
10:58 42.7966 -94.7251 118° Southeast 522 601 37,000  Level FlightAware ADS-B
10:59 42.7865 -94.6991 118° Southeast 523 602 37,000  Level FlightAware ADS-B (KFOD)
10:59 42.7612 -94.6340 118° Southeast 522 601 37,000  Level FlightAware ADS-B
10:59 42.7528 -94.6126 118° Southeast 523 602 37,000  Level FlightAware ADS-B (KFOD)
10:59 42.7255 -94.5426 118° Southeast 521 600 37,000  Level FlightAware ADS-B
11:00 42.7208 -94.5307 118° Southeast 521 600 37,000  Level FlightAware ADS-B (KFOD)
11:00 42.6911 -94.4553 118° Southeast 523 602 37,000  Level FlightAware ADS-B
11:00 42.6671 -94.3941 118° Southeast 523 602 37,000  Level FlightAware ADS-B (KFOD)
11:00 42.6568 -94.3680 118° Southeast 523 602 37,000  Level FlightAware ADS-B
11:01 42.6341 -94.3101 118° Southeast 523 602 37,000  Level FlightAware ADS-B (KFOD)
11:01 42.6220 -94.2794 118° Southeast 522 601 37,000  Level FlightAware ADS-B
11:01 42.5873 -94.1917 118° Southeast 522 601 37,000  Level FlightAware ADS-B
11:02 42.5800 -94.1734 118° Southeast 523 602 37,000  Level FlightAware ADS-B (KFOD)
11:02 42.5529 -94.1051 118° Southeast 524 603 37,000  Level FlightAware ADS-B
11:02 42.5284 -94.0435 118° Southeast 525 604 37,000  Level FlightAware ADS-B (KFOD)
11:02 42.5175 -94.0161 118° Southeast 525 604 37,000  Level FlightAware ADS-B
11:03 42.4825 -93.9283 118° Southeast 525 604 37,000  Level FlightAware ADS-B
11:03 42.4815 -93.9258 119° Southeast 524 603 37,000  Level FlightAware ADS-B (KFOD)
11:03 42.4466 -93.8386 118° Southeast 523 602 37,000  Level FlightAware ADS-B
11:04 42.4075 -93.7410 119° Southeast 523 602 37,000  Level FlightAware ADS-B
11:05 42.3720 -93.6533 119° Southeast 524 603 37,000  Level FlightAware ADS-B
11:05 42.3389 -93.5712 119° Southeast 525 604 37,000  Level FlightAware ADS-B (KFOD)
11:05 42.3315 -93.5530 119° Southeast 525 604 37,000  Level FlightAware ADS-B
11:06 42.2898 -93.4501 119° Southeast 525 604 37,000  Level FlightAware ADS-B
11:06 42.2837 -93.4351 119° Southeast 525 604 37,000  Level FlightAware ADS-B (KFOD)
11:06 42.2525 -93.3581 119° Southeast 526 605 37,000  Level FlightAware ADS-B
11:06 42.2405 -93.3287 119° Southeast 526 605 37,000  Level FlightAware ADS-B (KFOD)
11:07 42.2062 -93.2450 119° Southeast 525 604 37,000  Level FlightAware ADS-B
11:07 42.1997 -93.2291 119° Southeast 525 604 37,000  Level FlightAware ADS-B (KFOD)
11:07 42.1707 -93.1582 119° Southeast 526 605 37,000  Level FlightAware ADS-B
11:08 42.1340 -93.0687 119° Southeast 526 605 37,000  Level FlightAware ADS-B
11:08 42.1083 -93.0068 119° Southeast 526 605 37,000  Level FlightAware ADS-B (KFOD)
11:08 42.0970 -92.9797 119° Southeast 526 605 37,000  Level FlightAware ADS-B
11:11 41.9377 -92.5957 119° Southeast 528 608 37,000  Level FlightAware ADS-B (KCID)
11:12 41.8569 -92.4033 120° Southeast 528 608 37,000  Level FlightAware ADS-B (KCID)
11:13 41.8035 -92.2772 120° Southeast 528 608 37,000  Level FlightAware ADS-B (KCID)
11:13 41.7529 -92.1574 120° Southeast 530 610 37,000  Level FlightAware ADS-B (KCID)
11:14 41.7125 -92.0626 120° Southeast 529 609 37,000  Level FlightAware ADS-B (KCID)
11:15 41.6589 -91.9375 120° Southeast 528 608 37,000  Level FlightAware ADS-B (KCID)
11:15 41.6107 -91.8247 120° Southeast 528 608 37,000  Level FlightAware ADS-B (KCID)
11:16 41.5491 -91.6818 120° Southeast 529 609 37,000  Level FlightAware ADS-B (KCID)
11:17 41.5127 -91.5975 120° Southeast 530 610 37,000  Level FlightAware ADS-B (KCID)
11:17 41.4658 -91.4893 120° Southeast 530 610 37,000  Level FlightAware ADS-B (KCID)
11:18 41.4261 -91.3980 120° Southeast 529 609 37,000  Level FlightAware ADS-B (KCID)
11:20 41.2730 -91.0484 120° Southeast 529 609 37,000  Level FlightAware ADS-B (KCID)
11:20 41.2533 -91.0038 120° Southeast 531 611 37,000  Level FlightAware ADS-B (KCID)
11:21 41.1879 -90.8561 120° Southeast 531 611 37,000  Level FlightAware ADS-B (KMDW)
11:23 41.0881 -90.6317 121° Southeast 534 615 37,000  Level FlightAware ADS-B (KCID)
11:26 40.8412 -90.0845 121° Southeast 534 615 37,000  Level FlightAware ADS-B (KPWK)
11:26 40.8116 -90.0198 121° Southeast 534 615 37,000  Level FlightAware ADS-B (KPWK)
11:27 40.7459 -89.8758 121° Southeast 534 615 37,000  Level FlightAware ADS-B (KPWK)
11:28 40.6494 -89.6660 121° Southeast 533 613 37,000  Level FlightAware ADS-B (KPWK)
11:30 40.4686 -89.2768 122° Southeast 530 610 37,000  Level FlightAware ADS-B (KMDW)
11:32 40.3694 -89.0653 122° Southeast 529 609 37,000  Level FlightAware ADS-B (KMDW)
11:33 40.3461 -89.0159 124° Southeast 529 609 37,000 -180 Level FlightAware ADS-B (KMDW)
11:34 40.2813 -88.8884 124° Southeast 528 608 36,700 -1,740 Descending FlightAware ADS-B (KMDW)
11:35 40.1517 -88.6356 124° Southeast 523 602 34,000 -3,360 Descending Chicago Center
11:36 40.0703 -88.4775 124° Southeast 523 602 30,200 -3,360 Descending Chicago Center
11:37 39.9908 -88.3211 124° Southeast 515 593 27,100 -1,560 Descending Chicago Center
11:38 39.9114 -88.1489 121° Southeast 532 612 27,000 -60 Descending Chicago Center
11:39 39.8339 -87.9814 121° Southeast 539 620 27,000 -300 Level Chicago Center
11:40 39.7561 -87.8144 121° Southeast 540 621 26,400 -1,020 Descending Chicago Center
11:41 39.6781 -87.6478 121° Southeast 522 601 25,000 -1,500 Descending Chicago Center
11:42 39.5928 -87.4672 121° Southeast 504 580 23,300 -1,500 Descending Chicago Center
11:43 39.5214 -87.3178 122° Southeast 490 564 21,900 -1,140 Descending Chicago Center
11:44 39.4394 -87.1864 129° Southeast 474 545 21,000 -780 Descending Chicago Center
11:45 39.3267 -87.0486 137° Southeast 469 540 20,200 -1,200 Descending Indianapolis Center
11:46 39.2339 -86.9344 136° Southeast 467 537 18,400 -1,740 Descending Indianapolis Center
11:47 39.1264 -86.8025 136° Southeast 449 517 16,700 -1,800 Descending Indianapolis Center
11:48 39.0369 -86.6939 137° Southeast 440 506 14,800 -1,440 Descending Indianapolis Center
11:49 38.9461 -86.5844 137° Southeast 430 495 13,800 -1,080 Descending Indianapolis Center
11:50 38.8639 -86.4844 137° Southeast 422 486 12,600 -1,260 Descending Indianapolis Center
11:51 38.7811 -86.3839 137° Southeast 404 465 11,300 -1,020 Descending Indianapolis Center
11:52 38.6997 -86.2867 137° Southeast 400 460 10,500 -780 Descending Indianapolis Center
11:58 38.2749 -85.9508 146° Southeast 285 328 6,000 -720 Descending FlightAware ADS-B (KBRY)
11:59 38.2227 -85.9057 146° Southeast 280 322 6,000 -300 Level FlightAware ADS-B (KBRY)
12:00 38.1389 -85.8405 166° South 257 296 5,400 -1,260 Descending FlightAware ADS-B (KBRY)
12:01 38.0667 -85.8202 169° South 241 277 3,300 -1,380 Descending FlightAware ADS-B (KBRY)
12:02 38.0318 -85.7710 89° East 193 222 2,600 -480 Descending FlightAware ADS-B (KBRY)
12:03 38.0590 -85.7153 24° Northeast 162 186 2,400 -480 Descending FlightAware ADS-B (KBRY)
12:05 38.1033 -85.7213 344° North 126 145 1,600 -720 Descending FlightAware ADS-B (KBRY)
12:05 38.1267 -85.7288 344° North 123 142 1,100 -720 Descending FlightAware ADS-B (KBRY)